UAL1010 KTPA-KORD
Flight info
| Callsign | UAL1010 |
|---|---|
| Flight time | 2h 27m |
| Altitude | 34000 |
| Route | ENDED2 LACEN BRUTS Q118 HEVAN BONNT VEECK5 |
| Aircraft | A21N/M-SDE2E3FGHIRWXY/LB1 |
Departure
| Time | 2026-05-05 21:09 |
|---|---|
| Airport | Tampa International Airport (KTPA) |
Arrival
| Time | 2026-05-05 23:36 |
|---|---|
| Airport | Chicago O'Hare International Airport (KORD) |
| Time | Latitude | Longitude | Altitude | Speed | Heading |
|---|---|---|---|---|---|
| 2026-05-05 20:07 | 27.97451 | -82.53195 | 67 ft | 0 kts | 9° |
| 2026-05-05 20:52 | 27.97432 | -82.53199 | 48 ft | 4 kts | 9° |
| 2026-05-05 20:52 | 27.97405 | -82.53204 | 47 ft | 4 kts | 9° |
| 2026-05-05 20:53 | 27.97379 | -82.53209 | 47 ft | 4 kts | 9° |
| 2026-05-05 20:53 | 27.97363 | -82.53213 | 47 ft | 0 kts | 9° |
| 2026-05-05 20:59 | 27.97366 | -82.53212 | 46 ft | 2 kts | 9° |
| 2026-05-05 20:59 | 27.97384 | -82.53185 | 45 ft | 7 kts | 87° |
| 2026-05-05 21:00 | 27.97380 | -82.53108 | 48 ft | 13 kts | 94° |
| 2026-05-05 21:00 | 27.97398 | -82.53008 | 45 ft | 14 kts | 30° |
| 2026-05-05 21:00 | 27.97499 | -82.52988 | 47 ft | 15 kts | 0° |
| 2026-05-05 21:00 | 27.97612 | -82.52982 | 47 ft | 17 kts | 2° |
| 2026-05-05 21:01 | 27.97733 | -82.52978 | 47 ft | 18 kts | 359° |
| 2026-05-05 21:01 | 27.97864 | -82.52976 | 47 ft | 20 kts | 1° |
| 2026-05-05 21:01 | 27.98004 | -82.52970 | 47 ft | 21 kts | 3° |
| 2026-05-05 21:01 | 27.98155 | -82.52965 | 47 ft | 22 kts | 0° |
| 2026-05-05 21:02 | 27.98292 | -82.52960 | 46 ft | 20 kts | 1° |
| 2026-05-05 21:02 | 27.98432 | -82.52956 | 46 ft | 21 kts | 1° |
| 2026-05-05 21:02 | 27.98574 | -82.52950 | 46 ft | 12 kts | 2° |
| 2026-05-05 21:02 | 27.98626 | -82.53010 | 47 ft | 14 kts | 284° |
| 2026-05-05 21:03 | 27.98638 | -82.53126 | 48 ft | 16 kts | 272° |
| 2026-05-05 21:03 | 27.98641 | -82.53214 | 54 ft | 18 kts | 272° |
| 2026-05-05 21:03 | 27.98646 | -82.53402 | 63 ft | 27 kts | 272° |
| 2026-05-05 21:03 | 27.98654 | -82.53620 | 62 ft | 27 kts | 273° |
| 2026-05-05 21:04 | 27.98662 | -82.53822 | 51 ft | 20 kts | 272° |
| 2026-05-05 21:04 | 27.98719 | -82.53946 | 52 ft | 21 kts | 359° |
| 2026-05-05 21:04 | 27.98866 | -82.53943 | 52 ft | 19 kts | 2° |
| 2026-05-05 21:04 | 27.98999 | -82.53938 | 52 ft | 19 kts | 1° |
| 2026-05-05 21:05 | 27.99138 | -82.53933 | 51 ft | 21 kts | 1° |
| 2026-05-05 21:05 | 27.99273 | -82.53929 | 51 ft | 5 kts | 1° |
| 2026-05-05 21:05 | 27.99311 | -82.53928 | 51 ft | 6 kts | 358° |
| 2026-05-05 21:05 | 27.99348 | -82.53967 | 51 ft | 8 kts | 288° |
| 2026-05-05 21:06 | 27.99349 | -82.53997 | 52 ft | 0 kts | 270° |
| 2026-05-05 21:07 | 27.99349 | -82.54003 | 52 ft | 3 kts | 270° |
| 2026-05-05 21:07 | 27.99349 | -82.54049 | 51 ft | 9 kts | 270° |
| 2026-05-05 21:07 | 27.99322 | -82.54124 | 51 ft | 13 kts | 211° |
| 2026-05-05 21:07 | 27.99226 | -82.54138 | 52 ft | 15 kts | 181° |
| 2026-05-05 21:08 | 27.99010 | -82.54148 | 53 ft | 62 kts | 183° |
| 2026-05-05 21:08 | 27.98337 | -82.54171 | 53 ft | 129 kts | 182° |
| 2026-05-05 21:08 | 27.97252 | -82.54208 | 52 ft | 179 kts | 181° |
| 2026-05-05 21:08 | 27.95965 | -82.54209 | 481 ft | 185 kts | 183° |
| 2026-05-05 21:09 | 27.94649 | -82.54244 | 1094 ft | 191 kts | 182° |
| 2026-05-05 21:09 | 27.93310 | -82.54351 | 1661 ft | 198 kts | 189° |
| 2026-05-05 21:09 | 27.92041 | -82.55041 | 2098 ft | 208 kts | 210° |
| 2026-05-05 21:09 | 27.90709 | -82.55756 | 2547 ft | 221 kts | 200° |
| 2026-05-05 21:10 | 27.89212 | -82.56379 | 3095 ft | 237 kts | 199° |
| 2026-05-05 21:10 | 27.87799 | -82.57390 | 3725 ft | 252 kts | 224° |
| 2026-05-05 21:10 | 27.86591 | -82.58852 | 4607 ft | 257 kts | 231° |
| 2026-05-05 21:10 | 27.85758 | -82.60625 | 5508 ft | 261 kts | 251° |
| 2026-05-05 21:11 | 27.85424 | -82.62664 | 6441 ft | 263 kts | 270° |
| 2026-05-05 21:11 | 27.85807 | -82.64587 | 7242 ft | 263 kts | 295° |
| 2026-05-05 21:11 | 27.86847 | -82.66102 | 8092 ft | 262 kts | 320° |
| 2026-05-05 21:11 | 27.88218 | -82.66943 | 8836 ft | 265 kts | 341° |
| 2026-05-05 21:12 | 27.89887 | -82.67328 | 9584 ft | 268 kts | 348° |
| 2026-05-05 21:12 | 27.91436 | -82.67604 | 10277 ft | 269 kts | 348° |
| 2026-05-05 21:12 | 27.92913 | -82.67881 | 10807 ft | 273 kts | 347° |
| 2026-05-05 21:12 | 27.94661 | -82.68232 | 11465 ft | 275 kts | 346° |
| 2026-05-05 21:13 | 27.96467 | -82.68614 | 12186 ft | 276 kts | 346° |
| 2026-05-05 21:13 | 27.98375 | -82.69029 | 12580 ft | 292 kts | 346° |
| 2026-05-05 21:13 | 28.00131 | -82.69411 | 12855 ft | 307 kts | 346° |
| 2026-05-05 21:13 | 28.02327 | -82.69890 | 13133 ft | 326 kts | 346° |
| 2026-05-05 21:14 | 28.04629 | -82.70397 | 13402 ft | 344 kts | 346° |
| 2026-05-05 21:14 | 28.07027 | -82.70930 | 13660 ft | 361 kts | 346° |
| 2026-05-05 21:14 | 28.09550 | -82.71489 | 13894 ft | 377 kts | 346° |
| 2026-05-05 21:14 | 28.12120 | -82.72059 | 14092 ft | 391 kts | 346° |
| 2026-05-05 21:15 | 28.14847 | -82.72663 | 14304 ft | 403 kts | 346° |
| 2026-05-05 21:15 | 28.17591 | -82.73279 | 14713 ft | 408 kts | 346° |
| 2026-05-05 21:15 | 28.20383 | -82.73902 | 15307 ft | 411 kts | 346° |
| 2026-05-05 21:15 | 28.23203 | -82.74530 | 15917 ft | 413 kts | 346° |
| 2026-05-05 21:16 | 28.26024 | -82.75149 | 16461 ft | 415 kts | 346° |
| 2026-05-05 21:16 | 28.28875 | -82.75773 | 16997 ft | 417 kts | 346° |
| 2026-05-05 21:16 | 28.31739 | -82.76405 | 17509 ft | 420 kts | 346° |
| 2026-05-05 21:16 | 28.34590 | -82.77038 | 18038 ft | 422 kts | 346° |
| 2026-05-05 21:17 | 28.37492 | -82.77682 | 18502 ft | 424 kts | 345° |
| 2026-05-05 21:17 | 28.40398 | -82.78324 | 18903 ft | 427 kts | 346° |
| 2026-05-05 21:17 | 28.43347 | -82.78847 | 19305 ft | 430 kts | 348° |
| 2026-05-05 21:17 | 28.46310 | -82.79332 | 19706 ft | 433 kts | 348° |
| 2026-05-05 21:18 | 28.49302 | -82.79820 | 20112 ft | 436 kts | 348° |
| 2026-05-05 21:18 | 28.52312 | -82.80309 | 20504 ft | 438 kts | 347° |
| 2026-05-05 21:18 | 28.55343 | -82.80805 | 20912 ft | 441 kts | 347° |
| 2026-05-05 21:18 | 28.58343 | -82.81293 | 21358 ft | 444 kts | 347° |
| 2026-05-05 21:19 | 28.61414 | -82.81839 | 21852 ft | 447 kts | 346° |
| 2026-05-05 21:19 | 28.64492 | -82.82408 | 22300 ft | 450 kts | 346° |
| 2026-05-05 21:19 | 28.67597 | -82.82977 | 22720 ft | 453 kts | 346° |
| 2026-05-05 21:19 | 28.70694 | -82.83538 | 23110 ft | 456 kts | 346° |
| 2026-05-05 21:20 | 28.73845 | -82.84107 | 23480 ft | 459 kts | 346° |
| 2026-05-05 21:20 | 28.76987 | -82.84677 | 23656 ft | 459 kts | 346° |
| 2026-05-05 21:20 | 28.80160 | -82.85251 | 23883 ft | 463 kts | 346° |
| 2026-05-05 21:20 | 28.83345 | -82.85827 | 24241 ft | 462 kts | 346° |
| 2026-05-05 21:21 | 28.86472 | -82.86391 | 24712 ft | 458 kts | 346° |
| 2026-05-05 21:21 | 28.89583 | -82.86949 | 25200 ft | 455 kts | 346° |
| 2026-05-05 21:21 | 28.92664 | -82.87504 | 25690 ft | 451 kts | 346° |
| 2026-05-05 21:21 | 28.95783 | -82.88072 | 26190 ft | 448 kts | 346° |
| 2026-05-05 21:22 | 28.98848 | -82.88634 | 26680 ft | 444 kts | 346° |
| 2026-05-05 21:22 | 29.01888 | -82.89189 | 27149 ft | 442 kts | 346° |
| 2026-05-05 21:22 | 29.04915 | -82.89740 | 27639 ft | 439 kts | 346° |
| 2026-05-05 21:22 | 29.07908 | -82.90287 | 28134 ft | 436 kts | 345° |
| 2026-05-05 21:23 | 29.10897 | -82.90830 | 28652 ft | 432 kts | 345° |
| 2026-05-05 21:23 | 29.13855 | -82.91369 | 29163 ft | 429 kts | 345° |
| 2026-05-05 21:23 | 29.16758 | -82.91902 | 29634 ft | 426 kts | 345° |
| 2026-05-05 21:23 | 29.19682 | -82.92439 | 30108 ft | 424 kts | 345° |
| 2026-05-05 21:24 | 29.22580 | -82.92970 | 30486 ft | 422 kts | 345° |
| 2026-05-05 21:24 | 29.25474 | -82.93494 | 30856 ft | 420 kts | 345° |
| 2026-05-05 21:24 | 29.28353 | -82.94011 | 31231 ft | 418 kts | 345° |
| 2026-05-05 21:24 | 29.31207 | -82.94523 | 31602 ft | 415 kts | 345° |
| 2026-05-05 21:25 | 29.34104 | -82.95044 | 31963 ft | 413 kts | 345° |
| 2026-05-05 21:25 | 29.36899 | -82.95554 | 32297 ft | 411 kts | 344° |
| 2026-05-05 21:25 | 29.39717 | -82.96070 | 32636 ft | 409 kts | 344° |
| 2026-05-05 21:25 | 29.42524 | -82.96582 | 32969 ft | 407 kts | 344° |
| 2026-05-05 21:26 | 29.45318 | -82.97092 | 33290 ft | 406 kts | 344° |
| 2026-05-05 21:26 | 29.48098 | -82.97601 | 33595 ft | 404 kts | 344° |
| 2026-05-05 21:26 | 29.50862 | -82.98170 | 33900 ft | 399 kts | 340° |
| 2026-05-05 21:26 | 29.53483 | -82.99112 | 34067 ft | 394 kts | 333° |
| 2026-05-05 21:27 | 29.58537 | -83.01516 | 34072 ft | 392 kts | 332° |
| 2026-05-05 21:27 | 29.63564 | -83.03938 | 34054 ft | 392 kts | 332° |
| 2026-05-05 21:28 | 29.68603 | -83.06351 | 34055 ft | 392 kts | 332° |
| 2026-05-05 21:28 | 29.73645 | -83.08758 | 34049 ft | 392 kts | 332° |
| 2026-05-05 21:29 | 29.78685 | -83.11161 | 34048 ft | 391 kts | 332° |
| 2026-05-05 21:29 | 29.83713 | -83.13567 | 34062 ft | 391 kts | 332° |
| 2026-05-05 21:30 | 29.88707 | -83.15961 | 34053 ft | 391 kts | 332° |
| 2026-05-05 21:30 | 29.93761 | -83.18384 | 34052 ft | 391 kts | 332° |
| 2026-05-05 21:31 | 29.98779 | -83.20799 | 34053 ft | 390 kts | 332° |
| 2026-05-05 21:31 | 30.03768 | -83.23192 | 34047 ft | 390 kts | 332° |
| 2026-05-05 21:32 | 30.08727 | -83.25579 | 34052 ft | 389 kts | 332° |
| 2026-05-05 21:32 | 30.13739 | -83.27988 | 34056 ft | 389 kts | 332° |
| 2026-05-05 21:33 | 30.18730 | -83.30397 | 34054 ft | 389 kts | 332° |
| 2026-05-05 21:33 | 30.23719 | -83.32805 | 34053 ft | 388 kts | 332° |
| 2026-05-05 21:34 | 30.28705 | -83.35216 | 34050 ft | 388 kts | 332° |
| 2026-05-05 21:34 | 30.33682 | -83.37618 | 34046 ft | 389 kts | 332° |
| 2026-05-05 21:35 | 30.38681 | -83.40034 | 34050 ft | 389 kts | 332° |
| 2026-05-05 21:35 | 30.43672 | -83.42457 | 34045 ft | 389 kts | 331° |
| 2026-05-05 21:36 | 30.48667 | -83.44882 | 34048 ft | 389 kts | 331° |
| 2026-05-05 21:36 | 30.53660 | -83.47298 | 34046 ft | 388 kts | 332° |
| 2026-05-05 21:37 | 30.58640 | -83.49721 | 34047 ft | 388 kts | 331° |
| 2026-05-05 21:37 | 30.63613 | -83.52139 | 34034 ft | 388 kts | 332° |
| 2026-05-05 21:38 | 30.68557 | -83.54543 | 34039 ft | 387 kts | 331° |
| 2026-05-05 21:38 | 30.73564 | -83.56984 | 34047 ft | 387 kts | 331° |
| 2026-05-05 21:39 | 30.78491 | -83.59386 | 34049 ft | 387 kts | 331° |
| 2026-05-05 21:39 | 30.83434 | -83.61804 | 34056 ft | 386 kts | 331° |
| 2026-05-05 21:40 | 30.88383 | -83.64232 | 34053 ft | 386 kts | 331° |
| 2026-05-05 21:40 | 30.93340 | -83.66659 | 34054 ft | 386 kts | 331° |
| 2026-05-05 21:41 | 30.98296 | -83.69086 | 34032 ft | 386 kts | 331° |
| 2026-05-05 21:41 | 31.03246 | -83.71515 | 34030 ft | 386 kts | 331° |
| 2026-05-05 21:42 | 31.08196 | -83.73946 | 34037 ft | 386 kts | 331° |
| 2026-05-05 21:42 | 31.13138 | -83.76382 | 34031 ft | 386 kts | 331° |
| 2026-05-05 21:43 | 31.17289 | -83.78423 | 34031 ft | 385 kts | 331° |
| 2026-05-05 21:43 | 31.22223 | -83.80852 | 34030 ft | 385 kts | 331° |
| 2026-05-05 21:44 | 31.27170 | -83.83296 | 34036 ft | 385 kts | 331° |
| 2026-05-05 21:44 | 31.32089 | -83.85728 | 34046 ft | 385 kts | 331° |
| 2026-05-05 21:45 | 31.36997 | -83.88171 | 34046 ft | 385 kts | 331° |
| 2026-05-05 21:45 | 31.41949 | -83.90601 | 34043 ft | 385 kts | 331° |
| 2026-05-05 21:46 | 31.46871 | -83.93042 | 34043 ft | 384 kts | 331° |
| 2026-05-05 21:46 | 31.51824 | -83.95437 | 34041 ft | 387 kts | 335° |
| 2026-05-05 21:47 | 31.57148 | -83.96833 | 34043 ft | 394 kts | 341° |
| 2026-05-05 21:47 | 31.62540 | -83.98008 | 34039 ft | 394 kts | 341° |
| 2026-05-05 21:48 | 31.67931 | -83.99202 | 34040 ft | 394 kts | 341° |
| 2026-05-05 21:48 | 31.73305 | -84.00410 | 34039 ft | 393 kts | 341° |
| 2026-05-05 21:49 | 31.78686 | -84.01602 | 34043 ft | 393 kts | 341° |
| 2026-05-05 21:49 | 31.84011 | -84.02780 | 34029 ft | 393 kts | 341° |
| 2026-05-05 21:50 | 31.89387 | -84.03986 | 34023 ft | 393 kts | 341° |
| 2026-05-05 21:50 | 31.94789 | -84.05194 | 34018 ft | 393 kts | 341° |
| 2026-05-05 21:51 | 32.00119 | -84.06387 | 34011 ft | 392 kts | 341° |
| 2026-05-05 21:51 | 32.05430 | -84.07613 | 34003 ft | 392 kts | 341° |
| 2026-05-05 21:52 | 32.13466 | -84.09382 | 34001 ft | 392 kts | 341° |
| 2026-05-05 21:53 | 32.18840 | -84.10585 | 34002 ft | 392 kts | 341° |
| 2026-05-05 21:53 | 32.24198 | -84.11793 | 34007 ft | 392 kts | 341° |
| 2026-05-05 21:54 | 32.29536 | -84.12991 | 34007 ft | 392 kts | 341° |
| 2026-05-05 21:54 | 32.34870 | -84.14201 | 34009 ft | 392 kts | 341° |
| 2026-05-05 21:55 | 32.40115 | -84.15386 | 34003 ft | 392 kts | 341° |
| 2026-05-05 21:55 | 32.45481 | -84.16590 | 34012 ft | 392 kts | 341° |
| 2026-05-05 21:56 | 32.50843 | -84.17811 | 34008 ft | 392 kts | 341° |
| 2026-05-05 21:56 | 32.56199 | -84.19024 | 34011 ft | 392 kts | 341° |
| 2026-05-05 21:57 | 32.61560 | -84.20240 | 34010 ft | 392 kts | 341° |
| 2026-05-05 21:57 | 32.66926 | -84.21465 | 34012 ft | 392 kts | 341° |
| 2026-05-05 21:58 | 32.72316 | -84.22681 | 34012 ft | 392 kts | 341° |
| 2026-05-05 21:58 | 32.77522 | -84.23862 | 34019 ft | 392 kts | 341° |
| 2026-05-05 21:59 | 32.82880 | -84.25088 | 34020 ft | 392 kts | 341° |
| 2026-05-05 21:59 | 32.88226 | -84.26314 | 34043 ft | 392 kts | 340° |
| 2026-05-05 22:00 | 32.93555 | -84.27517 | 34038 ft | 391 kts | 341° |
| 2026-05-05 22:00 | 32.98872 | -84.28732 | 34040 ft | 391 kts | 340° |
| 2026-05-05 22:01 | 33.04223 | -84.29961 | 34045 ft | 391 kts | 340° |
| 2026-05-05 22:01 | 33.09531 | -84.31177 | 34037 ft | 391 kts | 340° |
| 2026-05-05 22:02 | 33.14866 | -84.32408 | 34010 ft | 391 kts | 340° |
| 2026-05-05 22:02 | 33.20194 | -84.33639 | 34031 ft | 390 kts | 340° |
| 2026-05-05 22:03 | 33.25528 | -84.34867 | 34055 ft | 391 kts | 340° |
| 2026-05-05 22:03 | 33.30877 | -84.36099 | 34057 ft | 391 kts | 340° |
| 2026-05-05 22:04 | 33.36219 | -84.37327 | 34054 ft | 392 kts | 340° |
| 2026-05-05 22:04 | 33.41591 | -84.38570 | 34055 ft | 392 kts | 340° |
| 2026-05-05 22:05 | 33.46853 | -84.39785 | 34054 ft | 393 kts | 340° |
| 2026-05-05 22:05 | 33.52217 | -84.41035 | 34008 ft | 393 kts | 340° |
| 2026-05-05 22:06 | 33.57598 | -84.42274 | 34012 ft | 394 kts | 340° |
| 2026-05-05 22:06 | 33.62987 | -84.43529 | 34000 ft | 394 kts | 340° |
| 2026-05-05 22:07 | 33.68398 | -84.44725 | 34006 ft | 396 kts | 341° |
| 2026-05-05 22:07 | 33.73828 | -84.45912 | 33993 ft | 397 kts | 341° |
| 2026-05-05 22:08 | 33.79255 | -84.47100 | 33993 ft | 398 kts | 341° |
| 2026-05-05 22:08 | 33.84709 | -84.48307 | 33998 ft | 399 kts | 341° |
| 2026-05-05 22:09 | 33.90182 | -84.49519 | 33991 ft | 400 kts | 341° |
| 2026-05-05 22:09 | 33.95617 | -84.50705 | 33994 ft | 400 kts | 341° |
| 2026-05-05 22:10 | 34.01132 | -84.51934 | 34021 ft | 401 kts | 341° |
| 2026-05-05 22:10 | 34.06740 | -84.52753 | 34013 ft | 408 kts | 346° |
| 2026-05-05 22:11 | 34.12411 | -84.53316 | 34013 ft | 409 kts | 346° |
| 2026-05-05 22:11 | 34.18068 | -84.53896 | 34018 ft | 410 kts | 346° |
| 2026-05-05 22:12 | 34.23745 | -84.54491 | 34028 ft | 411 kts | 346° |
| 2026-05-05 22:12 | 34.29445 | -84.55095 | 34029 ft | 411 kts | 346° |
| 2026-05-05 22:13 | 34.35156 | -84.55689 | 34033 ft | 412 kts | 346° |
| 2026-05-05 22:13 | 34.40878 | -84.56287 | 34021 ft | 413 kts | 346° |
| 2026-05-05 22:14 | 34.46588 | -84.56889 | 34018 ft | 414 kts | 346° |
| 2026-05-05 22:14 | 34.52317 | -84.57494 | 34010 ft | 414 kts | 346° |
| 2026-05-05 22:15 | 34.58087 | -84.58102 | 33995 ft | 416 kts | 346° |
| 2026-05-05 22:15 | 34.62880 | -84.58611 | 33997 ft | 416 kts | 346° |
| 2026-05-05 22:16 | 34.68661 | -84.59230 | 33994 ft | 417 kts | 346° |
| 2026-05-05 22:16 | 34.74456 | -84.59840 | 33998 ft | 418 kts | 346° |
| 2026-05-05 22:17 | 34.80254 | -84.60455 | 33997 ft | 419 kts | 346° |
| 2026-05-05 22:17 | 34.85957 | -84.61060 | 33988 ft | 421 kts | 347° |
| 2026-05-05 22:18 | 34.91867 | -84.61687 | 33986 ft | 421 kts | 347° |
| 2026-05-05 22:18 | 34.97708 | -84.62309 | 33957 ft | 421 kts | 346° |
| 2026-05-05 22:19 | 35.03560 | -84.62934 | 33958 ft | 422 kts | 347° |
| 2026-05-05 22:19 | 35.09414 | -84.63564 | 33943 ft | 423 kts | 346° |
| 2026-05-05 22:20 | 35.15275 | -84.64188 | 33920 ft | 424 kts | 347° |
| 2026-05-05 22:20 | 35.21158 | -84.64818 | 33931 ft | 424 kts | 347° |
| 2026-05-05 22:21 | 35.27040 | -84.65450 | 33938 ft | 425 kts | 347° |
| 2026-05-05 22:21 | 35.32948 | -84.66086 | 33971 ft | 426 kts | 347° |
| 2026-05-05 22:22 | 35.38843 | -84.66724 | 33974 ft | 426 kts | 347° |
| 2026-05-05 22:22 | 35.44677 | -84.67355 | 33972 ft | 426 kts | 347° |
| 2026-05-05 22:23 | 35.50585 | -84.67998 | 33968 ft | 427 kts | 347° |
| 2026-05-05 22:23 | 35.56507 | -84.68632 | 33962 ft | 427 kts | 347° |
| 2026-05-05 22:24 | 35.62318 | -84.69260 | 33957 ft | 428 kts | 347° |
| 2026-05-05 22:24 | 35.68241 | -84.69904 | 33938 ft | 428 kts | 347° |
| 2026-05-05 22:25 | 35.74159 | -84.70544 | 33940 ft | 429 kts | 347° |
| 2026-05-05 22:25 | 35.80114 | -84.71194 | 33942 ft | 429 kts | 347° |
| 2026-05-05 22:26 | 35.86058 | -84.71845 | 33934 ft | 429 kts | 347° |
| 2026-05-05 22:26 | 35.92012 | -84.72495 | 33936 ft | 430 kts | 347° |
| 2026-05-05 22:27 | 35.97967 | -84.73142 | 33946 ft | 430 kts | 347° |
| 2026-05-05 22:27 | 36.03935 | -84.73795 | 33940 ft | 430 kts | 347° |
| 2026-05-05 22:28 | 36.09891 | -84.74447 | 33943 ft | 430 kts | 347° |
| 2026-05-05 22:28 | 36.15834 | -84.75101 | 33934 ft | 429 kts | 347° |
| 2026-05-05 22:29 | 36.21787 | -84.75756 | 33917 ft | 430 kts | 347° |
| 2026-05-05 22:29 | 36.27736 | -84.76408 | 33912 ft | 429 kts | 347° |
| 2026-05-05 22:30 | 36.33680 | -84.77070 | 33919 ft | 430 kts | 347° |
| 2026-05-05 22:30 | 36.39681 | -84.77729 | 33915 ft | 430 kts | 347° |
| 2026-05-05 22:31 | 36.45705 | -84.77980 | 33913 ft | 437 kts | 353° |
| 2026-05-05 22:31 | 36.51795 | -84.77775 | 33910 ft | 437 kts | 353° |
| 2026-05-05 22:32 | 36.57886 | -84.77596 | 33917 ft | 438 kts | 353° |
| 2026-05-05 22:32 | 36.63985 | -84.77421 | 33913 ft | 438 kts | 353° |
| 2026-05-05 22:33 | 36.70066 | -84.77243 | 33912 ft | 437 kts | 353° |
| 2026-05-05 22:33 | 36.76158 | -84.77063 | 33904 ft | 438 kts | 353° |
| 2026-05-05 22:34 | 36.82255 | -84.76886 | 33912 ft | 438 kts | 353° |
| 2026-05-05 22:34 | 36.88353 | -84.76709 | 33913 ft | 438 kts | 353° |
| 2026-05-05 22:35 | 36.94426 | -84.76526 | 33915 ft | 438 kts | 353° |
| 2026-05-05 22:35 | 37.00521 | -84.76349 | 33884 ft | 438 kts | 353° |
| 2026-05-05 22:36 | 37.06626 | -84.76170 | 33882 ft | 438 kts | 353° |
| 2026-05-05 22:36 | 37.12723 | -84.75992 | 33877 ft | 439 kts | 353° |
| 2026-05-05 22:37 | 37.18828 | -84.75809 | 33883 ft | 439 kts | 353° |
| 2026-05-05 22:37 | 37.24936 | -84.75629 | 33882 ft | 438 kts | 353° |
| 2026-05-05 22:38 | 37.31050 | -84.75451 | 33893 ft | 439 kts | 353° |
| 2026-05-05 22:38 | 37.37159 | -84.75256 | 33883 ft | 440 kts | 353° |
| 2026-05-05 22:39 | 37.43285 | -84.75057 | 33883 ft | 440 kts | 353° |
| 2026-05-05 22:39 | 37.49417 | -84.74855 | 33885 ft | 440 kts | 353° |
| 2026-05-05 22:40 | 37.55506 | -84.74659 | 33886 ft | 441 kts | 353° |
| 2026-05-05 22:40 | 37.61652 | -84.74455 | 33883 ft | 441 kts | 353° |
| 2026-05-05 22:41 | 37.67809 | -84.74254 | 33884 ft | 442 kts | 353° |
| 2026-05-05 22:41 | 37.73951 | -84.74055 | 33872 ft | 442 kts | 353° |
| 2026-05-05 22:42 | 37.80108 | -84.73868 | 33871 ft | 443 kts | 353° |
| 2026-05-05 22:42 | 37.86283 | -84.73677 | 33873 ft | 443 kts | 354° |
| 2026-05-05 22:43 | 37.92450 | -84.73485 | 33875 ft | 444 kts | 354° |
| 2026-05-05 22:43 | 37.98622 | -84.73292 | 33871 ft | 444 kts | 354° |
| 2026-05-05 22:44 | 38.04806 | -84.73103 | 33873 ft | 444 kts | 354° |
| 2026-05-05 22:44 | 38.10916 | -84.72912 | 33870 ft | 444 kts | 354° |
| 2026-05-05 22:45 | 38.17145 | -84.72711 | 33851 ft | 444 kts | 354° |
| 2026-05-05 22:45 | 38.23332 | -84.72524 | 33848 ft | 444 kts | 354° |
| 2026-05-05 22:46 | 38.29519 | -84.72328 | 33853 ft | 445 kts | 354° |
| 2026-05-05 22:46 | 38.35715 | -84.72131 | 33848 ft | 445 kts | 354° |
| 2026-05-05 22:47 | 38.41899 | -84.71941 | 33851 ft | 444 kts | 354° |
| 2026-05-05 22:47 | 38.48016 | -84.72331 | 33839 ft | 433 kts | 341° |
| 2026-05-05 22:48 | 38.52727 | -84.74279 | 33861 ft | 426 kts | 334° |
| 2026-05-05 22:48 | 38.58287 | -84.76905 | 33851 ft | 428 kts | 334° |
| 2026-05-05 22:49 | 38.63906 | -84.79537 | 33852 ft | 430 kts | 334° |
| 2026-05-05 22:49 | 38.69437 | -84.82108 | 33847 ft | 430 kts | 335° |
| 2026-05-05 22:50 | 38.75067 | -84.84709 | 33848 ft | 431 kts | 335° |
| 2026-05-05 22:50 | 38.80702 | -84.87346 | 33848 ft | 431 kts | 335° |
| 2026-05-05 22:51 | 38.86334 | -84.89966 | 33842 ft | 431 kts | 335° |
| 2026-05-05 22:51 | 38.91977 | -84.92605 | 33837 ft | 431 kts | 335° |
| 2026-05-05 22:52 | 38.97612 | -84.95249 | 33843 ft | 432 kts | 335° |
| 2026-05-05 22:52 | 39.03267 | -84.97896 | 33839 ft | 432 kts | 335° |
| 2026-05-05 22:53 | 39.08915 | -85.00538 | 33837 ft | 433 kts | 335° |
| 2026-05-05 22:53 | 39.14588 | -85.03194 | 33833 ft | 433 kts | 335° |
| 2026-05-05 22:54 | 39.20245 | -85.05871 | 33828 ft | 433 kts | 335° |
| 2026-05-05 22:54 | 39.25890 | -85.08531 | 33824 ft | 432 kts | 335° |
| 2026-05-05 22:55 | 39.31508 | -85.11166 | 33820 ft | 432 kts | 335° |
| 2026-05-05 22:55 | 39.37140 | -85.13849 | 33823 ft | 432 kts | 335° |
| 2026-05-05 22:56 | 39.42739 | -85.16505 | 33821 ft | 433 kts | 335° |
| 2026-05-05 22:56 | 39.48403 | -85.19195 | 33829 ft | 433 kts | 335° |
| 2026-05-05 22:57 | 39.54046 | -85.21876 | 33831 ft | 433 kts | 335° |
| 2026-05-05 22:57 | 39.59696 | -85.24572 | 33829 ft | 432 kts | 335° |
| 2026-05-05 22:58 | 39.65343 | -85.27273 | 33838 ft | 432 kts | 335° |
| 2026-05-05 22:58 | 39.70989 | -85.29973 | 33844 ft | 433 kts | 335° |
| 2026-05-05 22:59 | 39.76445 | -85.32623 | 33853 ft | 433 kts | 335° |
| 2026-05-05 22:59 | 39.82105 | -85.35300 | 33851 ft | 433 kts | 335° |
| 2026-05-05 23:00 | 39.90636 | -85.39383 | 33861 ft | 434 kts | 335° |
| 2026-05-05 23:00 | 39.96259 | -85.42091 | 33867 ft | 433 kts | 335° |
| 2026-05-05 23:01 | 40.01908 | -85.44831 | 33881 ft | 433 kts | 335° |
| 2026-05-05 23:01 | 40.07604 | -85.47581 | 33562 ft | 433 kts | 335° |
| 2026-05-05 23:02 | 40.10109 | -85.48813 | 33877 ft | 432 kts | 334° |
| 2026-05-05 23:02 | 40.12899 | -85.50258 | 33870 ft | 432 kts | 333° |
| 2026-05-05 23:02 | 40.18413 | -85.53337 | 33858 ft | 430 kts | 331° |
| 2026-05-05 23:03 | 40.23821 | -85.56658 | 33852 ft | 428 kts | 329° |
| 2026-05-05 23:03 | 40.29122 | -85.60221 | 33841 ft | 427 kts | 327° |
| 2026-05-05 23:04 | 40.34299 | -85.64012 | 33849 ft | 425 kts | 326° |
| 2026-05-05 23:04 | 40.39350 | -85.68032 | 33846 ft | 424 kts | 323° |
| 2026-05-05 23:05 | 40.44307 | -85.72240 | 33858 ft | 427 kts | 326° |
| 2026-05-05 23:05 | 40.49741 | -85.74803 | 33970 ft | 441 kts | 344° |
| 2026-05-05 23:06 | 40.55919 | -85.75748 | 33917 ft | 447 kts | 349° |
| 2026-05-05 23:06 | 40.62126 | -85.76550 | 33894 ft | 449 kts | 349° |
| 2026-05-05 23:07 | 40.68346 | -85.77353 | 33900 ft | 449 kts | 348° |
| 2026-05-05 23:07 | 40.74582 | -85.78192 | 33893 ft | 449 kts | 347° |
| 2026-05-05 23:08 | 40.80359 | -85.80305 | 33897 ft | 440 kts | 334° |
| 2026-05-05 23:08 | 40.86141 | -85.83124 | 33890 ft | 441 kts | 334° |
| 2026-05-05 23:09 | 40.91855 | -85.85876 | 33891 ft | 440 kts | 334° |
| 2026-05-05 23:09 | 40.97651 | -85.88669 | 33883 ft | 441 kts | 334° |
| 2026-05-05 23:10 | 41.03404 | -85.91446 | 33879 ft | 441 kts | 334° |
| 2026-05-05 23:10 | 41.09185 | -85.94236 | 33874 ft | 442 kts | 334° |
| 2026-05-05 23:11 | 41.14967 | -85.97039 | 33884 ft | 442 kts | 334° |
| 2026-05-05 23:11 | 41.20519 | -85.99753 | 33876 ft | 440 kts | 331° |
| 2026-05-05 23:12 | 41.25506 | -86.04058 | 33881 ft | 421 kts | 310° |
| 2026-05-05 23:12 | 41.28742 | -86.10325 | 33449 ft | 406 kts | 289° |
| 2026-05-05 23:13 | 41.29593 | -86.13861 | 33097 ft | 403 kts | 280° |
| 2026-05-05 23:13 | 41.30065 | -86.17547 | 32817 ft | 404 kts | 277° |
| 2026-05-05 23:13 | 41.30465 | -86.21245 | 32550 ft | 405 kts | 276° |
| 2026-05-05 23:13 | 41.30874 | -86.24946 | 32287 ft | 406 kts | 277° |
| 2026-05-05 23:14 | 41.31277 | -86.28509 | 32042 ft | 406 kts | 277° |
| 2026-05-05 23:14 | 41.31704 | -86.32223 | 31792 ft | 407 kts | 277° |
| 2026-05-05 23:14 | 41.32133 | -86.35954 | 31542 ft | 408 kts | 277° |
| 2026-05-05 23:14 | 41.32555 | -86.39676 | 31287 ft | 409 kts | 277° |
| 2026-05-05 23:15 | 41.32993 | -86.43421 | 31039 ft | 410 kts | 277° |
| 2026-05-05 23:15 | 41.33432 | -86.47186 | 30794 ft | 411 kts | 277° |
| 2026-05-05 23:15 | 41.33875 | -86.50954 | 30545 ft | 413 kts | 278° |
| 2026-05-05 23:15 | 41.34549 | -86.54656 | 29876 ft | 415 kts | 285° |
| 2026-05-05 23:16 | 41.35694 | -86.58215 | 28797 ft | 418 kts | 293° |
| 2026-05-05 23:16 | 41.37028 | -86.61672 | 27752 ft | 421 kts | 294° |
| 2026-05-05 23:16 | 41.38481 | -86.65080 | 26687 ft | 426 kts | 300° |
| 2026-05-05 23:16 | 41.40334 | -86.68187 | 25634 ft | 434 kts | 309° |
| 2026-05-05 23:17 | 41.42661 | -86.70821 | 24670 ft | 441 kts | 320° |
| 2026-05-05 23:17 | 41.45336 | -86.72850 | 23843 ft | 444 kts | 328° |
| 2026-05-05 23:17 | 41.48111 | -86.74637 | 23064 ft | 438 kts | 329° |
| 2026-05-05 23:17 | 41.50724 | -86.76305 | 22316 ft | 432 kts | 330° |
| 2026-05-05 23:18 | 41.53573 | -86.77729 | 21816 ft | 448 kts | 339° |
| 2026-05-05 23:18 | 41.55446 | -86.78290 | 21592 ft | 461 kts | 345° |
| 2026-05-05 23:18 | 41.59735 | -86.78818 | 21086 ft | 461 kts | 351° |
| 2026-05-05 23:18 | 41.61842 | -86.79005 | 20710 ft | 452 kts | 351° |
| 2026-05-05 23:19 | 41.64931 | -86.79279 | 20095 ft | 439 kts | 350° |
| 2026-05-05 23:19 | 41.67921 | -86.79627 | 19532 ft | 427 kts | 349° |
| 2026-05-05 23:19 | 41.70882 | -86.80003 | 18975 ft | 426 kts | 349° |
| 2026-05-05 23:19 | 41.73787 | -86.80377 | 18387 ft | 423 kts | 349° |
| 2026-05-05 23:20 | 41.76690 | -86.80745 | 17650 ft | 414 kts | 348° |
| 2026-05-05 23:20 | 41.79536 | -86.81316 | 16941 ft | 410 kts | 345° |
| 2026-05-05 23:20 | 41.82347 | -86.81965 | 16332 ft | 409 kts | 344° |
| 2026-05-05 23:20 | 41.85190 | -86.82789 | 15893 ft | 422 kts | 338° |
| 2026-05-05 23:21 | 41.87834 | -86.84357 | 15304 ft | 408 kts | 326° |
| 2026-05-05 23:21 | 41.89872 | -86.86168 | 14524 ft | 395 kts | 316° |
| 2026-05-05 23:21 | 41.91706 | -86.88734 | 13581 ft | 381 kts | 303° |
| 2026-05-05 23:21 | 41.92985 | -86.91760 | 12720 ft | 366 kts | 290° |
| 2026-05-05 23:22 | 41.93682 | -86.94944 | 12286 ft | 344 kts | 279° |
| 2026-05-05 23:22 | 41.93909 | -86.98049 | 11992 ft | 323 kts | 272° |
| 2026-05-05 23:22 | 41.94009 | -87.00967 | 11750 ft | 303 kts | 271° |
| 2026-05-05 23:22 | 41.94095 | -87.03668 | 11538 ft | 284 kts | 271° |
| 2026-05-05 23:23 | 41.94192 | -87.06267 | 11347 ft | 266 kts | 272° |
| 2026-05-05 23:23 | 41.94288 | -87.08669 | 11172 ft | 249 kts | 272° |
| 2026-05-05 23:23 | 41.94382 | -87.10889 | 11008 ft | 233 kts | 272° |
| 2026-05-05 23:23 | 41.94467 | -87.13022 | 10808 ft | 219 kts | 272° |
| 2026-05-05 23:24 | 41.94550 | -87.15029 | 10444 ft | 213 kts | 272° |
| 2026-05-05 23:24 | 41.94632 | -87.17007 | 10006 ft | 211 kts | 271° |
| 2026-05-05 23:24 | 41.94714 | -87.18970 | 9531 ft | 210 kts | 271° |
| 2026-05-05 23:24 | 41.94776 | -87.20566 | 9121 ft | 210 kts | 271° |
| 2026-05-05 23:25 | 41.94851 | -87.22544 | 8643 ft | 210 kts | 271° |
| 2026-05-05 23:25 | 41.94939 | -87.24512 | 8284 ft | 212 kts | 272° |
| 2026-05-05 23:25 | 41.95023 | -87.26494 | 7966 ft | 212 kts | 272° |
| 2026-05-05 23:25 | 41.95100 | -87.28469 | 7669 ft | 211 kts | 272° |
| 2026-05-05 23:26 | 41.95178 | -87.30411 | 7375 ft | 211 kts | 272° |
| 2026-05-05 23:26 | 41.95255 | -87.32374 | 7064 ft | 210 kts | 272° |
| 2026-05-05 23:26 | 41.95334 | -87.34330 | 6750 ft | 209 kts | 272° |
| 2026-05-05 23:26 | 41.95410 | -87.36271 | 6436 ft | 209 kts | 272° |
| 2026-05-05 23:27 | 41.95486 | -87.38229 | 6121 ft | 209 kts | 272° |
| 2026-05-05 23:27 | 41.95566 | -87.40175 | 5795 ft | 208 kts | 272° |
| 2026-05-05 23:27 | 41.95645 | -87.42101 | 5485 ft | 207 kts | 272° |
| 2026-05-05 23:27 | 41.95728 | -87.44013 | 5184 ft | 205 kts | 272° |
| 2026-05-05 23:28 | 41.95812 | -87.45931 | 4878 ft | 205 kts | 272° |
| 2026-05-05 23:28 | 41.95892 | -87.47833 | 4558 ft | 204 kts | 271° |
| 2026-05-05 23:28 | 41.95972 | -87.49733 | 4253 ft | 204 kts | 271° |
| 2026-05-05 23:28 | 41.96047 | -87.51617 | 3999 ft | 196 kts | 271° |
| 2026-05-05 23:29 | 41.96110 | -87.53330 | 3950 ft | 178 kts | 271° |
| 2026-05-05 23:29 | 41.96169 | -87.54967 | 4045 ft | 182 kts | 271° |
| 2026-05-05 23:29 | 41.96233 | -87.56668 | 4039 ft | 182 kts | 270° |
| 2026-05-05 23:29 | 41.96295 | -87.58375 | 4013 ft | 183 kts | 271° |
| 2026-05-05 23:30 | 41.96360 | -87.60094 | 4002 ft | 183 kts | 271° |
| 2026-05-05 23:30 | 41.96425 | -87.61800 | 4000 ft | 183 kts | 271° |
| 2026-05-05 23:30 | 41.96490 | -87.63511 | 4002 ft | 184 kts | 271° |
| 2026-05-05 23:30 | 41.96558 | -87.65230 | 4005 ft | 184 kts | 271° |
| 2026-05-05 23:31 | 41.96578 | -87.66896 | 3972 ft | 176 kts | 269° |
| 2026-05-05 23:31 | 41.96586 | -87.68506 | 3797 ft | 163 kts | 270° |
| 2026-05-05 23:31 | 41.96595 | -87.69920 | 3641 ft | 140 kts | 269° |
| 2026-05-05 23:31 | 41.96596 | -87.71145 | 3430 ft | 126 kts | 268° |
| 2026-05-05 23:32 | 41.96595 | -87.72316 | 3261 ft | 125 kts | 268° |
| 2026-05-05 23:32 | 41.96594 | -87.73376 | 3101 ft | 126 kts | 268° |
| 2026-05-05 23:32 | 41.96592 | -87.74528 | 2932 ft | 126 kts | 268° |
| 2026-05-05 23:32 | 41.96591 | -87.75710 | 2769 ft | 125 kts | 268° |
| 2026-05-05 23:33 | 41.96589 | -87.76853 | 2606 ft | 124 kts | 269° |
| 2026-05-05 23:33 | 41.96588 | -87.78011 | 2439 ft | 124 kts | 268° |
| 2026-05-05 23:33 | 41.96586 | -87.79178 | 2279 ft | 124 kts | 267° |
| 2026-05-05 23:33 | 41.96584 | -87.80334 | 2119 ft | 124 kts | 267° |
| 2026-05-05 23:34 | 41.96583 | -87.81499 | 1948 ft | 124 kts | 268° |
| 2026-05-05 23:34 | 41.96581 | -87.82653 | 1773 ft | 122 kts | 267° |
| 2026-05-05 23:34 | 41.96565 | -87.83797 | 1536 ft | 124 kts | 268° |
| 2026-05-05 23:34 | 41.96525 | -87.84930 | 1345 ft | 121 kts | 270° |
| 2026-05-05 23:35 | 41.96534 | -87.86065 | 1160 ft | 120 kts | 271° |
| 2026-05-05 23:35 | 41.96557 | -87.87207 | 1031 ft | 125 kts | 269° |
| 2026-05-05 23:35 | 41.96563 | -87.88350 | 852 ft | 122 kts | 268° |
| 2026-05-05 23:35 | 41.96564 | -87.89498 | 733 ft | 122 kts | 266° |
| 2026-05-05 23:36 | 41.96556 | -87.90622 | 678 ft | 108 kts | 268° |
| 2026-05-05 23:36 | 41.96571 | -87.91467 | 674 ft | 72 kts | 270° |
| 2026-05-05 23:36 | 41.96570 | -87.91878 | 673 ft | 28 kts | 269° |
| 2026-05-05 23:36 | 41.96574 | -87.92138 | 675 ft | 28 kts | 263° |
| 2026-05-05 23:37 | 41.96575 | -87.92412 | 675 ft | 30 kts | 274° |
| 2026-05-05 23:37 | 41.96607 | -87.92527 | 675 ft | 14 kts | 310° |
| 2026-05-05 23:37 | 41.96721 | -87.92535 | 674 ft | 19 kts | 359° |
| 2026-05-05 23:37 | 41.96872 | -87.92535 | 672 ft | 24 kts | 2° |
| 2026-05-05 23:38 | 41.97052 | -87.92537 | 674 ft | 26 kts | 1° |
| 2026-05-05 23:38 | 41.97155 | -87.92415 | 674 ft | 26 kts | 98° |
| 2026-05-05 23:38 | 41.97158 | -87.92353 | 674 ft | 3 kts | 98° |
| 2026-05-05 23:38 | 41.97153 | -87.92295 | 674 ft | 10 kts | 90° |
| 2026-05-05 23:39 | 41.97155 | -87.92178 | 674 ft | 15 kts | 90° |
| 2026-05-05 23:39 | 41.97155 | -87.92032 | 674 ft | 17 kts | 90° |
| 2026-05-05 23:39 | 41.97156 | -87.91866 | 674 ft | 19 kts | 89° |
| 2026-05-05 23:39 | 41.97156 | -87.91687 | 674 ft | 21 kts | 90° |
| 2026-05-05 23:40 | 41.97155 | -87.91487 | 674 ft | 23 kts | 91° |
| 2026-05-05 23:40 | 41.97163 | -87.91308 | 673 ft | 19 kts | 67° |
| 2026-05-05 23:40 | 41.97243 | -87.91162 | 674 ft | 14 kts | 49° |
| 2026-05-05 23:40 | 41.97273 | -87.91133 | 673 ft | 6 kts | 17° |
| 2026-05-05 23:41 | 41.97321 | -87.91154 | 674 ft | 9 kts | 321° |
| 2026-05-05 23:41 | 41.97383 | -87.91151 | 674 ft | 11 kts | 39° |
| 2026-05-05 23:41 | 41.97448 | -87.91074 | 674 ft | 14 kts | 37° |
| 2026-05-05 23:41 | 41.97533 | -87.91010 | 674 ft | 16 kts | 65° |
| 2026-05-05 23:42 | 41.97588 | -87.90885 | 674 ft | 17 kts | 359° |
| 2026-05-05 23:42 | 41.97654 | -87.90872 | 674 ft | 1 kts | 342° |
| 2026-05-05 23:42 | 41.97668 | -87.90868 | 674 ft | 3 kts | 11° |
| 2026-05-05 23:42 | 41.97700 | -87.90860 | 674 ft | 6 kts | 11° |
| 2026-05-05 23:43 | 41.97745 | -87.90849 | 674 ft | 7 kts | 9° |
| 2026-05-05 23:43 | 41.97806 | -87.90836 | 673 ft | 10 kts | 9° |
| 2026-05-05 23:43 | 41.97882 | -87.90818 | 674 ft | 12 kts | 9° |
| 2026-05-05 23:43 | 41.97941 | -87.90805 | 674 ft | 0 kts | 9° |
| 2026-05-05 23:44 | 41.97943 | -87.90804 | 674 ft | 2 kts | 17° |
| 2026-05-05 23:45 | 41.97938 | -87.90764 | 674 ft | 7 kts | 115° |
| 2026-05-05 23:45 | 41.97933 | -87.90738 | 672 ft | 1 kts | 101° |
| 2026-05-05 23:45 | 41.97932 | -87.90729 | 673 ft | 0 kts | 101° |